Time;durP1;ratioP1;P1;durP2;ratioP2;P2;SDS_P1;SDS_P2;PMS_P1;PMS_P2;Temp;Humidity;BMP_temperature;BMP_pressure;BME280_temperature;BME280_humidity;BME280_pressure;Samples;Min_cycle;Max_cycle;Signal;HPM_P1;HPM_P2
2022/12/26 00:02:08;;;;;;;;;;;9.20;99.90;;;;;;5084400;28;19957;-68
2022/12/26 00:04:33;;;;;;;;;;;9.30;99.90;;;;;;5087166;28;19912;-68
2022/12/26 00:06:59;;;;;;;;;;;9.30;99.90;;;;;;5087475;28;19920;-68
2022/12/26 00:09:24;;;;;;;;;;;9.30;99.90;;;;;;5087579;28;19995;-68
2022/12/26 00:11:50;;;;;;;;;;;9.30;99.90;;;;;;5087322;28;19919;-68
2022/12/26 00:14:16;;;;;;;;;;;9.30;99.90;;;;;;5087710;28;19967;-68
2022/12/26 00:16:42;;;;;;;;;;;9.20;99.90;;;;;;5069170;28;19920;-68
2022/12/26 00:19:08;;;;;;;;;;;9.30;99.90;;;;;;5087457;28;20428;-68
2022/12/26 00:21:33;;;;;;;;;;;9.30;99.90;;;;;;5085899;28;20012;-68
2022/12/26 00:23:59;;;;;;;;;;;9.30;99.90;;;;;;5087077;28;20007;-68
2022/12/26 00:26:26;;;;;;;;;;;9.20;99.90;;;;;;5087421;28;19909;-68
2022/12/26 00:28:55;;;;;;;;;;;9.30;99.90;;;;;;5086952;28;19927;-68
2022/12/26 00:31:22;;;;;;;;;;;9.30;99.90;;;;;;5088100;28;19930;-68
2022/12/26 00:33:47;;;;;;;;;;;9.30;99.90;;;;;;5066894;28;19916;-68
2022/12/26 00:36:15;;;;;;;;;;;9.30;99.90;;;;;;5066877;28;19920;-68
2022/12/26 00:38:41;;;;;;;;;;;9.30;99.90;;;;;;5066665;28;19970;-68
2022/12/26 00:41:07;;;;;;;;;;;9.30;99.90;;;;;;5066517;28;19913;-68
2022/12/26 00:43:33;;;;;;;;;;;9.30;99.90;;;;;;5072000;28;19951;-68
2022/12/26 00:45:59;;;;;;;;;;;9.30;99.90;;;;;;5086941;28;19946;-68
2022/12/26 00:48:25;;;;;;;;;;;9.30;99.90;;;;;;5093526;28;19923;-68
2022/12/26 00:50:50;;;;;;;;;;;9.30;99.90;;;;;;5106543;28;19916;-68
2022/12/26 00:53:16;;;;;;;;;;;9.20;99.90;;;;;;5086018;28;19917;-68
2022/12/26 00:55:41;;;;;;;;;;;9.30;99.90;;;;;;5053177;28;20381;-68
2022/12/26 00:58:07;;;;;;;;;;;9.30;99.90;;;;;;5070313;28;19913;-68
2022/12/26 01:00:33;;;;;;;;;;;9.30;99.90;;;;;;5072803;28;20527;-68
2022/12/26 01:02:58;;;;;;;;;;;9.30;99.90;;;;;;5091126;28;19919;-68
2022/12/26 01:05:24;;;;;;;;;;;9.20;99.90;;;;;;5091927;28;19923;-68
2022/12/26 01:07:49;;;;;;;;;;;9.30;99.90;;;;;;5091021;28;19919;-68
2022/12/26 01:10:15;;;;;;;;;;;9.30;99.90;;;;;;5090902;28;19908;-68
2022/12/26 01:12:40;;;;;;;;;;;9.30;99.90;;;;;;5091066;28;19923;-68
2022/12/26 01:15:06;;;;;;;;;;;9.20;99.90;;;;;;5090865;28;19912;-68
2022/12/26 01:17:32;;;;;;;;;;;9.20;99.90;;;;;;5090434;28;20656;-68
2022/12/26 01:19:57;;;;;;;;;;;9.20;99.90;;;;;;5090709;28;19915;-68
2022/12/26 01:22:23;;;;;;;;;;;9.30;99.90;;;;;;5076654;28;20521;-68
2022/12/26 01:24:52;;;;;;;;;;;9.30;99.90;;;;;;5090637;28;19916;-68
2022/12/26 01:27:17;;;;;;;;;;;9.20;99.90;;;;;;5090641;28;20006;-68
2022/12/26 01:29:43;;;;;;;;;;;9.20;99.90;;;;;;5090262;28;20570;-68
2022/12/26 01:32:08;;;;;;;;;;;9.20;99.90;;;;;;5089939;28;19916;-68
2022/12/26 01:34:33;;;;;;;;;;;9.30;99.90;;;;;;5069026;28;20612;-68
2022/12/26 01:36:59;;;;;;;;;;;9.20;99.90;;;;;;5090285;28;19918;-68
2022/12/26 01:39:24;;;;;;;;;;;9.30;99.90;;;;;;5109334;28;20295;-68
2022/12/26 01:41:50;;;;;;;;;;;9.20;99.90;;;;;;5110473;28;20041;-68
2022/12/26 01:44:34;;;;;;;;;;;9.20;99.90;;;;;;5099757;28;20615;-68
2022/12/26 01:47:00;;;;;;;;;;;9.20;99.90;;;;;;5090025;28;19912;-68
2022/12/26 01:49:29;;;;;;;;;;;9.30;99.90;;;;;;5089934;28;19944;-68
2022/12/26 01:51:59;;;;;;;;;;;9.30;99.90;;;;;;5089949;28;19962;-68
2022/12/26 01:54:26;;;;;;;;;;;9.30;99.90;;;;;;5076452;28;19931;-68
2022/12/26 01:56:51;;;;;;;;;;;9.30;99.90;;;;;;5084690;28;19920;-68
2022/12/26 01:59:19;;;;;;;;;;;9.20;99.90;;;;;;5079035;28;20419;-68
2022/12/26 02:01:46;;;;;;;;;;;9.20;99.90;;;;;;5089706;28;19912;-68
2022/12/26 02:06:58;;;;;;;;;;;9.30;99.90;;;;;;5068585;28;20016;-68
2022/12/26 02:09:24;;;;;;;;;;;9.30;99.90;;;;;;5069363;28;19943;-68
2022/12/26 02:11:52;;;;;;;;;;;9.30;99.90;;;;;;5085982;28;19959;-68
2022/12/26 02:14:18;;;;;;;;;;;9.30;99.90;;;;;;5071520;28;19922;-68
2022/12/26 02:16:43;;;;;;;;;;;9.30;99.90;;;;;;5089705;28;19912;-68
2022/12/26 02:19:17;;;;;;;;;;;9.30;99.90;;;;;;5089116;28;19913;-68
2022/12/26 02:21:55;;;;;;;;;;;9.30;99.90;;;;;;5087453;28;20284;-68
2022/12/26 02:24:29;;;;;;;;;;;9.30;99.90;;;;;;5089173;28;19919;-68
2022/12/26 02:26:57;;;;;;;;;;;9.30;99.90;;;;;;5090428;28;20014;-68
2022/12/26 02:29:41;;;;;;;;;;;9.20;99.90;;;;;;5089292;28;19923;-68
2022/12/26 02:32:13;;;;;;;;;;;9.30;99.90;;;;;;5084444;28;19990;-68
2022/12/26 02:34:39;;;;;;;;;;;9.30;99.90;;;;;;5087600;28;19950;-68
2022/12/26 02:37:22;;;;;;;;;;;9.30;99.90;;;;;;5088569;28;20596;-68
2022/12/26 02:40:05;;;;;;;;;;;9.30;99.90;;;;;;5089216;28;20029;-68
2022/12/26 02:42:30;;;;;;;;;;;9.30;99.90;;;;;;5089103;28;19912;-68
2022/12/26 02:48:15;;;;;;;;;;;9.30;99.90;;;;;;5107789;28;20398;-68
2022/12/26 03:13:12;;;;;;;;;;;9.30;99.90;;;;;;5087905;28;20004;-68
2022/12/26 03:18:26;;;;;;;;;;;9.30;99.90;;;;;;5107328;28;19923;-68
2022/12/26 03:20:52;;;;;;;;;;;9.30;99.90;;;;;;5101321;28;20456;-68
2022/12/26 03:23:19;;;;;;;;;;;9.30;99.90;;;;;;5088195;28;19915;-68
2022/12/26 03:28:32;;;;;;;;;;;9.30;99.90;;;;;;5087860;28;20305;-68
2022/12/26 03:30:59;;;;;;;;;;;9.30;99.90;;;;;;5087770;28;20002;-68
2022/12/26 03:36:20;;;;;;;;;;;9.30;99.90;;;;;;5088196;28;20360;-68
2022/12/26 03:38:50;;;;;;;;;;;9.30;99.90;;;;;;5087925;28;20342;-68
2022/12/26 04:44:21;;;;;;;;;;;9.20;99.90;;;;;;5086899;28;19919;-68
2022/12/26 04:46:47;;;;;;;;;;;9.20;99.90;;;;;;5101198;28;19942;-68
2022/12/26 04:51:59;;;;;;;;;;;9.10;99.90;;;;;;5106947;28;20557;-68
2022/12/26 04:54:24;;;;;;;;;;;9.10;99.90;;;;;;5066807;28;19931;-68
2022/12/26 04:56:50;;;;;;;;;;;9.10;99.90;;;;;;5076303;28;20364;-68
2022/12/26 04:59:16;;;;;;;;;;;9.10;99.90;;;;;;5107056;28;19911;-68
2022/12/26 05:09:58;;;;;;;;;;;9.00;99.90;;;;;;5069289;28;20599;-68
2022/12/26 05:12:23;;;;;;;;;;;9.10;99.90;;;;;;5086566;28;19923;-68
2022/12/26 05:14:48;;;;;;;;;;;9.10;99.90;;;;;;5088178;28;19920;-69
2022/12/26 05:31:03;;;;;;;;;;;9.00;99.90;;;;;;5086512;28;19982;-69
2022/12/26 05:36:13;;;;;;;;;;;9.00;99.90;;;;;;5086701;28;19954;-68
2022/12/26 05:38:39;;;;;;;;;;;9.00;99.90;;;;;;5085932;28;19912;-68
2022/12/26 05:41:04;;;;;;;;;;;8.90;99.90;;;;;;5089486;28;19912;-68
2022/12/26 05:43:30;;;;;;;;;;;8.90;99.90;;;;;;5071650;28;19915;-68
2022/12/26 05:45:56;;;;;;;;;;;8.90;99.90;;;;;;5090334;28;20278;-69
2022/12/26 05:48:21;;;;;;;;;;;8.90;99.90;;;;;;5090221;28;19981;-68
2022/12/26 05:50:47;;;;;;;;;;;8.90;99.90;;;;;;5089243;28;19908;-68
2022/12/26 05:53:12;;;;;;;;;;;8.90;99.90;;;;;;5089400;28;19959;-69
2022/12/26 05:55:38;;;;;;;;;;;8.90;99.90;;;;;;5071624;28;19912;-68
2022/12/26 05:58:03;;;;;;;;;;;8.90;99.90;;;;;;5081776;28;20695;-68
2022/12/26 06:00:29;;;;;;;;;;;8.90;99.90;;;;;;5091642;28;19966;-68
2022/12/26 06:02:55;;;;;;;;;;;8.90;99.90;;;;;;5088425;28;20635;-68
2022/12/26 06:05:21;;;;;;;;;;;8.90;99.90;;;;;;5069548;28;20378;-68
2022/12/26 06:07:46;;;;;;;;;;;8.90;99.90;;;;;;5069333;28;19913;-69
2022/12/26 06:10:12;;;;;;;;;;;8.90;99.90;;;;;;5069109;28;20242;-69
2022/12/26 06:12:37;;;;;;;;;;;8.90;99.90;;;;;;5068950;28;19917;-68
2022/12/26 06:15:03;;;;;;;;;;;8.90;99.90;;;;;;5086779;28;19916;-68
2022/12/26 06:17:28;;;;;;;;;;;8.90;99.90;;;;;;5090368;28;19915;-68
2022/12/26 06:19:54;;;;;;;;;;;8.80;99.90;;;;;;5088768;28;19912;-69
2022/12/26 06:22:19;;;;;;;;;;;8.90;99.90;;;;;;5086466;28;19912;-68
2022/12/26 06:24:45;;;;;;;;;;;8.90;99.90;;;;;;5089280;28;20660;-68
2022/12/26 06:27:10;;;;;;;;;;;8.80;99.90;;;;;;5089388;28;19916;-68
2022/12/26 06:29:36;;;;;;;;;;;8.80;99.90;;;;;;5089198;28;20277;-69
2022/12/26 06:32:02;;;;;;;;;;;8.80;99.90;;;;;;5088702;28;19923;-68
2022/12/26 06:34:27;;;;;;;;;;;8.80;99.90;;;;;;5098358;28;19987;-69
2022/12/26 06:36:54;;;;;;;;;;;8.80;99.90;;;;;;5109246;28;19939;-69
2022/12/26 06:39:20;;;;;;;;;;;8.80;99.90;;;;;;5109703;28;19919;-68
2022/12/26 06:41:45;;;;;;;;;;;8.80;99.90;;;;;;5109157;28;19908;-68
2022/12/26 06:44:11;;;;;;;;;;;8.80;99.90;;;;;;5099353;28;20015;-68
2022/12/26 06:46:36;;;;;;;;;;;8.80;99.90;;;;;;5088807;28;19985;-68
2022/12/26 06:49:02;;;;;;;;;;;8.80;99.90;;;;;;5089078;28;19912;-69
2022/12/26 06:51:27;;;;;;;;;;;8.80;99.90;;;;;;5088356;28;19916;-68
2022/12/26 06:53:53;;;;;;;;;;;8.80;99.90;;;;;;5088764;28;19920;-68
2022/12/26 06:56:26;;;;;;;;;;;8.80;99.90;;;;;;5088589;28;20465;-68
2022/12/26 06:58:58;;;;;;;;;;;8.80;99.90;;;;;;5068892;28;19920;-68
2022/12/26 07:01:24;;;;;;;;;;;8.80;99.90;;;;;;5067993;28;19913;-68
2022/12/26 07:03:51;;;;;;;;;;;8.80;99.90;;;;;;5068384;28;19962;-68
2022/12/26 07:06:32;;;;;;;;;;;8.80;99.90;;;;;;5068044;28;20031;-68
2022/12/26 07:09:00;;;;;;;;;;;8.80;99.90;;;;;;5088679;28;19920;-68
2022/12/26 07:11:27;;;;;;;;;;;8.80;99.90;;;;;;5088023;28;20012;-68
2022/12/26 07:13:53;;;;;;;;;;;8.80;99.90;;;;;;5087999;28;20536;-68
2022/12/26 07:16:18;;;;;;;;;;;8.80;99.90;;;;;;5088331;28;20001;-69
2022/12/26 07:18:44;;;;;;;;;;;8.80;99.90;;;;;;5088198;28;20364;-68
2022/12/26 07:21:11;;;;;;;;;;;8.80;99.90;;;;;;5086332;28;19909;-68
2022/12/26 07:23:37;;;;;;;;;;;8.80;99.90;;;;;;5092640;28;19923;-68
2022/12/26 07:26:03;;;;;;;;;;;8.80;99.90;;;;;;5108442;28;19911;-68
2022/12/26 07:28:28;;;;;;;;;;;8.80;99.90;;;;;;5071494;28;19919;-69
2022/12/26 07:30:54;;;;;;;;;;;8.80;99.90;;;;;;5087608;28;20017;-68
2022/12/26 07:33:19;;;;;;;;;;;8.80;99.90;;;;;;5082918;28;19913;-68
2022/12/26 07:35:45;;;;;;;;;;;8.80;99.90;;;;;;5087584;28;19908;-68
2022/12/26 07:38:11;;;;;;;;;;;8.80;99.90;;;;;;5088149;28;20250;-68
2022/12/26 07:40:36;;;;;;;;;;;8.70;99.90;;;;;;5088731;28;20009;-68
2022/12/26 07:43:02;;;;;;;;;;;8.80;99.90;;;;;;5088021;28;19985;-69
2022/12/26 07:45:27;;;;;;;;;;;8.70;99.90;;;;;;5103532;28;19922;-68
2022/12/26 07:47:53;;;;;;;;;;;8.80;99.90;;;;;;5108173;28;20524;-68
2022/12/26 07:50:19;;;;;;;;;;;8.80;99.90;;;;;;5107825;28;20049;-68
2022/12/26 07:52:45;;;;;;;;;;;8.80;99.90;;;;;;5094774;28;19912;-68
2022/12/26 07:55:10;;;;;;;;;;;8.80;99.90;;;;;;5067796;28;19916;-68
2022/12/26 07:57:36;;;;;;;;;;;8.80;99.90;;;;;;5068110;28;20320;-69
2022/12/26 08:00:02;;;;;;;;;;;8.80;99.90;;;;;;5107346;28;19915;-68
2022/12/26 08:02:27;;;;;;;;;;;8.80;99.90;;;;;;5107483;28;19912;-68
2022/12/26 08:04:53;;;;;;;;;;;8.80;99.90;;;;;;5073113;28;19918;-69
2022/12/26 08:07:18;;;;;;;;;;;8.80;99.90;;;;;;5087358;28;19942;-68
2022/12/26 08:09:44;;;;;;;;;;;8.80;99.90;;;;;;5087386;28;20061;-68
2022/12/26 08:12:09;;;;;;;;;;;8.80;99.90;;;;;;5086947;28;20683;-69
2022/12/26 08:14:38;;;;;;;;;;;8.80;99.90;;;;;;5089754;28;20449;-68
2022/12/26 08:17:04;;;;;;;;;;;8.80;99.90;;;;;;5088806;28;19912;-68
2022/12/26 08:19:29;;;;;;;;;;;8.80;99.90;;;;;;5107565;28;19919;-68
2022/12/26 08:21:54;;;;;;;;;;;8.80;99.90;;;;;;5089629;28;19923;-68
2022/12/26 08:24:20;;;;;;;;;;;8.80;99.90;;;;;;5087002;28;19958;-68
2022/12/26 08:26:45;;;;;;;;;;;8.80;99.90;;;;;;5086841;28;19912;-68
2022/12/26 08:29:11;;;;;;;;;;;8.80;99.90;;;;;;5101486;28;19920;-68
2022/12/26 08:31:36;;;;;;;;;;;8.80;99.90;;;;;;5107140;28;19912;-68
2022/12/26 08:34:02;;;;;;;;;;;8.80;99.90;;;;;;5095829;28;19912;-69
2022/12/26 08:36:27;;;;;;;;;;;8.80;99.90;;;;;;5086841;28;20535;-68
2022/12/26 08:38:53;;;;;;;;;;;8.80;99.90;;;;;;5087177;28;19912;-68
2022/12/26 08:41:18;;;;;;;;;;;8.80;99.90;;;;;;5086685;28;19916;-68
2022/12/26 08:43:48;;;;;;;;;;;8.80;99.90;;;;;;5099454;28;19919;-68
2022/12/26 08:46:14;;;;;;;;;;;8.80;99.90;;;;;;5086447;28;19923;-68
2022/12/26 08:48:40;;;;;;;;;;;8.80;99.90;;;;;;5086703;28;19912;-68
2022/12/26 08:51:07;;;;;;;;;;;8.80;99.90;;;;;;5086520;28;20467;-68
2022/12/26 08:53:34;;;;;;;;;;;8.80;99.90;;;;;;5086894;28;20193;-68
2022/12/26 08:56:00;;;;;;;;;;;8.80;99.90;;;;;;5086540;28;19908;-68
2022/12/26 08:58:26;;;;;;;;;;;8.80;99.90;;;;;;5083647;28;20571;-68
2022/12/26 09:00:52;;;;;;;;;;;8.80;99.90;;;;;;5086097;28;19966;-68
2022/12/26 09:03:17;;;;;;;;;;;8.80;99.90;;;;;;5085905;28;19985;-68
2022/12/26 09:05:43;;;;;;;;;;;8.80;99.90;;;;;;5086445;28;19912;-68
2022/12/26 09:08:09;;;;;;;;;;;8.80;99.90;;;;;;5086676;28;20372;-68
2022/12/26 09:10:34;;;;;;;;;;;8.80;99.90;;;;;;5068300;28;20249;-68
2022/12/26 09:13:00;;;;;;;;;;;8.90;99.90;;;;;;5085967;28;20273;-68
2022/12/26 09:15:25;;;;;;;;;;;8.80;99.90;;;;;;5069783;28;19973;-68
2022/12/26 09:17:51;;;;;;;;;;;8.90;99.90;;;;;;5090237;28;19965;-68
2022/12/26 09:20:16;;;;;;;;;;;8.90;99.90;;;;;;5088862;28;19916;-68
2022/12/26 09:22:51;;;;;;;;;;;8.90;99.90;;;;;;5089054;28;19912;-68
2022/12/26 09:25:17;;;;;;;;;;;8.80;99.90;;;;;;5089522;28;19919;-68
2022/12/26 09:27:43;;;;;;;;;;;8.90;99.90;;;;;;5089672;28;19912;-68
2022/12/26 09:30:08;;;;;;;;;;;8.80;99.90;;;;;;5090879;28;19962;-68
2022/12/26 09:32:34;;;;;;;;;;;8.90;99.90;;;;;;5090302;28;20526;-68
2022/12/26 09:35:00;;;;;;;;;;;8.90;99.90;;;;;;5090543;28;19919;-68
2022/12/26 09:37:25;;;;;;;;;;;8.90;99.90;;;;;;5090232;28;19939;-68
2022/12/26 09:39:51;;;;;;;;;;;8.80;99.90;;;;;;5090074;28;19916;-68
2022/12/26 09:42:35;;;;;;;;;;;8.90;99.90;;;;;;5090407;28;19912;-68
2022/12/26 09:45:14;;;;;;;;;;;8.90;99.90;;;;;;5072303;28;19912;-68
2022/12/26 09:47:48;;;;;;;;;;;8.90;99.90;;;;;;5089968;28;19912;-68
2022/12/26 09:50:28;;;;;;;;;;;8.90;99.90;;;;;;5089873;28;19969;-68
2022/12/26 09:52:58;;;;;;;;;;;8.90;99.90;;;;;;5090192;28;20428;-68
2022/12/26 09:55:23;;;;;;;;;;;8.90;99.90;;;;;;5090069;28;19919;-68
2022/12/26 09:57:50;;;;;;;;;;;8.90;99.90;;;;;;5076797;28;19912;-68
2022/12/26 10:00:20;;;;;;;;;;;9.00;99.90;;;;;;5086604;28;20418;-68
2022/12/26 10:02:48;;;;;;;;;;;8.90;99.90;;;;;;5105194;28;19916;-68
2022/12/26 10:05:14;;;;;;;;;;;9.00;99.90;;;;;;5089820;28;19918;-68
2022/12/26 10:07:42;;;;;;;;;;;9.00;99.90;;;;;;5089631;28;19912;-68
2022/12/26 10:10:09;;;;;;;;;;;9.00;99.90;;;;;;5089586;28;19908;-68
2022/12/26 10:12:55;;;;;;;;;;;9.00;99.90;;;;;;5089348;28;19931;-68
2022/12/26 10:15:21;;;;;;;;;;;9.00;99.90;;;;;;5088697;28;19912;-68
2022/12/26 10:17:55;;;;;;;;;;;9.00;99.90;;;;;;5096578;28;19916;-68
2022/12/26 10:20:28;;;;;;;;;;;9.00;99.90;;;;;;5105554;28;19912;-68
2022/12/26 10:23:12;;;;;;;;;;;9.00;99.90;;;;;;5088958;28;20104;-68
2022/12/26 10:25:41;;;;;;;;;;;9.10;99.90;;;;;;5088189;28;20428;-68
2022/12/26 10:28:30;;;;;;;;;;;9.10;99.90;;;;;;5070518;28;20425;-68
2022/12/26 10:30:57;;;;;;;;;;;9.10;99.90;;;;;;5080139;28;19999;-68
2022/12/26 10:33:35;;;;;;;;;;;9.10;99.90;;;;;;5088518;28;19915;-68
2022/12/26 10:36:01;;;;;;;;;;;9.10;99.90;;;;;;5068064;28;19917;-68
2022/12/26 10:38:38;;;;;;;;;;;9.10;99.90;;;;;;5067864;28;19920;-68
2022/12/26 10:41:24;;;;;;;;;;;9.10;99.90;;;;;;5067206;28;20524;-68
2022/12/26 10:43:49;;;;;;;;;;;9.10;99.90;;;;;;5074769;28;19908;-68
2022/12/26 10:46:38;;;;;;;;;;;9.10;99.90;;;;;;5088077;28;20571;-68
2022/12/26 10:49:04;;;;;;;;;;;9.10;99.90;;;;;;5088227;28;19919;-68
2022/12/26 10:51:30;;;;;;;;;;;9.10;99.90;;;;;;5099076;28;19915;-68
2022/12/26 10:53:55;;;;;;;;;;;9.20;99.90;;;;;;5075697;28;19951;-68
2022/12/26 10:56:21;;;;;;;;;;;9.20;99.90;;;;;;5067826;28;19923;-68
2022/12/26 10:58:52;;;;;;;;;;;9.20;99.90;;;;;;5067888;28;20393;-68
2022/12/26 11:01:28;;;;;;;;;;;9.20;99.90;;;;;;5067662;28;20637;-68
2022/12/26 11:03:57;;;;;;;;;;;9.20;99.90;;;;;;5078390;28;19912;-68
2022/12/26 11:06:25;;;;;;;;;;;9.30;99.90;;;;;;5076318;28;19919;-68
2022/12/26 11:08:51;;;;;;;;;;;9.30;99.90;;;;;;5098020;28;19923;-68
2022/12/26 11:11:16;;;;;;;;;;;9.30;99.90;;;;;;5087445;28;19912;-68
2022/12/26 11:13:46;;;;;;;;;;;9.30;99.90;;;;;;5087564;28;20364;-68
2022/12/26 11:16:12;;;;;;;;;;;9.30;99.90;;;;;;5087563;28;19916;-69
2022/12/26 11:18:37;;;;;;;;;;;9.30;99.90;;;;;;5087411;28;20388;-68
2022/12/26 11:21:18;;;;;;;;;;;9.30;99.90;;;;;;5085823;28;19916;-68
2022/12/26 11:23:48;;;;;;;;;;;9.30;99.90;;;;;;5087013;28;20425;-68
2022/12/26 11:26:23;;;;;;;;;;;9.30;99.90;;;;;;5087277;28;19914;-68
2022/12/26 11:29:04;;;;;;;;;;;9.30;99.90;;;;;;5066442;28;19952;-69
2022/12/26 11:31:30;;;;;;;;;;;9.30;99.90;;;;;;5066510;28;19908;-68
2022/12/26 11:33:57;;;;;;;;;;;9.30;99.90;;;;;;5072550;28;20640;-68
2022/12/26 11:36:25;;;;;;;;;;;9.30;99.90;;;;;;5083218;28;19916;-69
2022/12/26 11:38:53;;;;;;;;;;;9.30;99.90;;;;;;5068059;28;20525;-69
2022/12/26 11:41:30;;;;;;;;;;;9.30;99.90;;;;;;5086049;28;19958;-68
2022/12/26 11:43:58;;;;;;;;;;;9.40;99.90;;;;;;5085352;28;19909;-69
2022/12/26 11:46:47;;;;;;;;;;;9.30;99.90;;;;;;5068180;28;20288;-69
2022/12/26 11:49:28;;;;;;;;;;;9.40;99.90;;;;;;5073830;28;20587;-68
2022/12/26 11:51:54;;;;;;;;;;;9.30;99.90;;;;;;5087710;28;19915;-68
2022/12/26 11:54:25;;;;;;;;;;;9.30;99.90;;;;;;5085743;28;20372;-68
2022/12/26 11:57:09;;;;;;;;;;;9.30;99.90;;;;;;5083636;28;19912;-68
2022/12/26 11:59:35;;;;;;;;;;;9.40;99.90;;;;;;5084322;28;20284;-68
2022/12/26 12:02:16;;;;;;;;;;;9.30;99.90;;;;;;5085248;28;19934;-68
2022/12/26 12:04:42;;;;;;;;;;;9.40;99.90;;;;;;5085348;28;19992;-68
2022/12/26 12:07:10;;;;;;;;;;;9.30;99.90;;;;;;5086887;28;19939;-68
2022/12/26 12:09:46;;;;;;;;;;;9.40;99.90;;;;;;5086033;28;19912;-68
2022/12/26 12:12:15;;;;;;;;;;;9.40;99.90;;;;;;5083513;28;20480;-68
2022/12/26 12:14:48;;;;;;;;;;;9.40;99.90;;;;;;5086112;28;19969;-68
2022/12/26 12:17:29;;;;;;;;;;;9.40;99.90;;;;;;5083656;28;19919;-68
2022/12/26 12:20:17;;;;;;;;;;;9.40;99.90;;;;;;5083230;28;19919;-68
2022/12/26 12:23:01;;;;;;;;;;;9.40;99.90;;;;;;5055187;28;20542;-68
2022/12/26 12:25:42;;;;;;;;;;;9.40;99.90;;;;;;5086085;28;19951;-68
2022/12/26 12:28:16;;;;;;;;;;;9.40;99.90;;;;;;5085639;28;19920;-68
2022/12/26 12:30:42;;;;;;;;;;;9.40;99.90;;;;;;5085594;28;19920;-68
2022/12/26 12:33:26;;;;;;;;;;;9.50;99.90;;;;;;5067237;28;19916;-68
2022/12/26 12:36:15;;;;;;;;;;;9.50;99.90;;;;;;5083314;28;20012;-68
2022/12/26 12:39:16;;;;;;;;;;;9.50;99.90;;;;;;5074759;28;19919;-68
2022/12/26 12:41:41;;;;;;;;;;;9.40;99.90;;;;;;5020054;28;19917;-68
2022/12/26 12:44:11;;;;;;;;;;;9.40;99.90;;;;;;5070372;28;19916;-68
2022/12/26 12:46:40;;;;;;;;;;;9.40;99.90;;;;;;5084899;28;19912;-68
2022/12/26 12:49:22;;;;;;;;;;;9.40;99.90;;;;;;5084784;28;19979;-68
2022/12/26 12:52:23;;;;;;;;;;;9.50;99.90;;;;;;5085256;28;19919;-68
2022/12/26 12:54:55;;;;;;;;;;;9.50;99.90;;;;;;5019926;28;19924;-68
2022/12/26 12:57:23;;;;;;;;;;;9.40;99.90;;;;;;5074351;28;20003;-68
2022/12/26 12:59:57;;;;;;;;;;;9.40;99.90;;;;;;5082591;28;19940;-68
2022/12/26 13:02:25;;;;;;;;;;;9.40;99.90;;;;;;5085438;28;19916;-68
2022/12/26 13:04:55;;;;;;;;;;;9.40;99.90;;;;;;5085283;28;19919;-68
2022/12/26 13:07:24;;;;;;;;;;;9.40;99.90;;;;;;5085603;28;19908;-68
2022/12/26 13:09:52;;;;;;;;;;;9.40;99.90;;;;;;5082912;28;20546;-69
2022/12/26 13:12:23;;;;;;;;;;;9.30;99.90;;;;;;5085326;28;19919;-68
2022/12/26 13:15:08;;;;;;;;;;;9.30;99.90;;;;;;5075819;28;19920;-68
2022/12/26 13:17:36;;;;;;;;;;;9.30;99.90;;;;;;5087573;28;20032;-68
2022/12/26 13:20:04;;;;;;;;;;;9.30;99.90;;;;;;5068134;28;19916;-68
2022/12/26 13:24:22;;;;;;;;;;;9.30;99.90;;;;;;5065209;28;20396;-68
2022/12/26 13:25:19;;;;;;;;;;;9.30;99.90;;;;;;5083908;28;19912;-68
2022/12/26 13:27:45;;;;;;;;;;;9.20;99.90;;;;;;5084082;28;20456;-68
2022/12/26 13:30:11;;;;;;;;;;;9.20;99.90;;;;;;5084970;28;19916;-69
2022/12/26 13:32:37;;;;;;;;;;;9.20;99.90;;;;;;5084114;28;20020;-69
2022/12/26 13:35:04;;;;;;;;;;;9.20;99.90;;;;;;5063477;28;20015;-70
2022/12/26 13:37:38;;;;;;;;;;;9.20;99.90;;;;;;5082964;28;19957;-68
2022/12/26 13:40:10;;;;;;;;;;;9.10;99.90;;;;;;5084607;28;19927;-69
2022/12/26 13:45:38;;;;;;;;;;;9.10;99.90;;;;;;5085529;28;19918;-69
2022/12/26 13:48:16;;;;;;;;;;;9.10;99.90;;;;;;5083687;28;20624;-69
2022/12/26 13:50:48;;;;;;;;;;;9.10;99.90;;;;;;5084644;28;19917;-68
2022/12/26 13:53:23;;;;;;;;;;;9.10;99.90;;;;;;5081690;28;19916;-70
2022/12/26 13:55:49;;;;;;;;;;;9.00;99.90;;;;;;5081955;28;19912;-68
2022/12/26 13:58:22;;;;;;;;;;;9.00;99.90;;;;;;5083632;28;19912;-69
2022/12/26 14:00:48;;;;;;;;;;;9.00;99.90;;;;;;5085311;28;19923;-68
2022/12/26 14:03:41;;;;;;;;;;;9.00;99.90;;;;;;5088748;28;20069;-68
2022/12/26 14:06:18;;;;;;;;;;;9.00;99.90;;;;;;5087986;28;19916;-68
2022/12/26 14:08:44;;;;;;;;;;;9.00;99.90;;;;;;5088603;28;20501;-68
2022/12/26 14:11:21;;;;;;;;;;;9.00;99.90;;;;;;5088197;28;19998;-68
2022/12/26 14:13:49;;;;;;;;;;;9.00;99.90;;;;;;5088189;28;19987;-68
2022/12/26 14:16:27;;;;;;;;;;;9.00;99.90;;;;;;5088488;28;20013;-68
2022/12/26 14:19:13;;;;;;;;;;;9.00;99.90;;;;;;5087295;28;19912;-68
2022/12/26 14:21:44;;;;;;;;;;;8.90;99.90;;;;;;5067361;28;20399;-68
2022/12/26 14:24:12;;;;;;;;;;;8.90;99.90;;;;;;5085705;28;19919;-68
2022/12/26 14:26:38;;;;;;;;;;;8.90;99.90;;;;;;5085192;28;19912;-68
2022/12/26 14:29:23;;;;;;;;;;;8.90;99.90;;;;;;5087985;28;19923;-68
2022/12/26 14:31:49;;;;;;;;;;;8.80;99.90;;;;;;5087801;28;19918;-69
2022/12/26 14:34:26;;;;;;;;;;;8.90;99.90;;;;;;5087449;28;19924;-68
2022/12/26 14:36:59;;;;;;;;;;;8.80;99.90;;;;;;5085444;28;20432;-68
2022/12/26 14:39:25;;;;;;;;;;;8.80;99.90;;;;;;5086991;28;19916;-68
2022/12/26 14:45:01;;;;;;;;;;;8.80;99.90;;;;;;5086361;28;20364;-68
2022/12/26 14:47:38;;;;;;;;;;;8.80;99.90;;;;;;5087637;28;20405;-68
2022/12/26 14:50:22;;;;;;;;;;;8.70;99.90;;;;;;5087732;28;19916;-68
2022/12/26 14:52:48;;;;;;;;;;;8.80;99.90;;;;;;5087854;28;19920;-68
2022/12/26 14:55:32;;;;;;;;;;;8.70;99.90;;;;;;5087515;28;19919;-68
2022/12/26 14:58:18;;;;;;;;;;;8.70;99.90;;;;;;5084602;28;19912;-68
2022/12/26 15:00:43;;;;;;;;;;;8.70;99.90;;;;;;5086471;28;20610;-68
2022/12/26 15:03:32;;;;;;;;;;;8.70;99.90;;;;;;5086840;28;19912;-68
2022/12/26 15:06:08;;;;;;;;;;;8.70;99.90;;;;;;5085242;28;19912;-68
2022/12/26 15:08:52;;;;;;;;;;;8.60;99.90;;;;;;5085361;28;19916;-68
2022/12/26 15:11:24;;;;;;;;;;;8.60;99.90;;;;;;5085431;28;20488;-68
2022/12/26 15:13:49;;;;;;;;;;;8.60;99.90;;;;;;5086182;28;19923;-68
2022/12/26 15:16:35;;;;;;;;;;;8.60;99.90;;;;;;5087274;28;19916;-68
2022/12/26 15:19:00;;;;;;;;;;;8.60;99.90;;;;;;5053907;28;19912;-68
2022/12/26 15:21:29;;;;;;;;;;;8.50;99.90;;;;;;5067482;28;19922;-68
2022/12/26 15:24:13;;;;;;;;;;;8.50;99.90;;;;;;5085566;28;19918;-68
2022/12/26 15:26:57;;;;;;;;;;;8.50;99.90;;;;;;5065347;28;20356;-68
2022/12/26 15:29:28;;;;;;;;;;;8.50;99.90;;;;;;5085748;28;19916;-68
2022/12/26 15:31:56;;;;;;;;;;;8.50;99.90;;;;;;5084706;28;19912;-68
2022/12/26 15:34:31;;;;;;;;;;;8.50;99.90;;;;;;5086898;28;19973;-68
2022/12/26 15:37:15;;;;;;;;;;;8.40;99.90;;;;;;5084890;28;19919;-68
2022/12/26 15:39:44;;;;;;;;;;;8.40;99.90;;;;;;5085505;28;19908;-68
2022/12/26 15:42:25;;;;;;;;;;;8.40;99.90;;;;;;5068238;28;19991;-68
2022/12/26 15:44:50;;;;;;;;;;;8.40;99.90;;;;;;5084023;28;19912;-68
2022/12/26 15:47:28;;;;;;;;;;;8.40;99.90;;;;;;5086516;28;19920;-68
2022/12/26 15:50:12;;;;;;;;;;;8.30;99.90;;;;;;5083888;28;19919;-68
2022/12/26 15:52:54;;;;;;;;;;;8.30;99.90;;;;;;5082899;28;19969;-68
2022/12/26 15:55:29;;;;;;;;;;;8.30;99.90;;;;;;5091998;28;19944;-68
2022/12/26 15:58:01;;;;;;;;;;;8.30;99.90;;;;;;5082699;28;19932;-69
2022/12/26 16:00:37;;;;;;;;;;;8.30;99.90;;;;;;5086189;28;19973;-68
2022/12/26 16:03:08;;;;;;;;;;;8.30;99.90;;;;;;5086046;28;19923;-68
2022/12/26 16:05:34;;;;;;;;;;;8.20;99.90;;;;;;5084261;28;19913;-68
2022/12/26 16:08:08;;;;;;;;;;;8.20;99.90;;;;;;5085522;28;19908;-68
2022/12/26 16:10:34;;;;;;;;;;;8.20;99.90;;;;;;5084914;28;19969;-68
2022/12/26 16:13:00;;;;;;;;;;;8.20;99.90;;;;;;5086171;28;20323;-68
2022/12/26 16:15:25;;;;;;;;;;;8.20;99.90;;;;;;5086399;28;20015;-68
2022/12/26 16:17:51;;;;;;;;;;;8.10;99.90;;;;;;5084804;28;20179;-68
2022/12/26 16:20:16;;;;;;;;;;;8.10;99.90;;;;;;5085260;28;19912;-69
2022/12/26 16:22:42;;;;;;;;;;;8.10;99.90;;;;;;5085627;28;19908;-69
2022/12/26 16:25:09;;;;;;;;;;;8.10;99.90;;;;;;5084500;28;19920;-68
2022/12/26 16:27:35;;;;;;;;;;;8.00;99.90;;;;;;5087906;28;19959;-69
2022/12/26 16:30:03;;;;;;;;;;;8.00;99.90;;;;;;5085626;28;19908;-68
2022/12/26 16:32:30;;;;;;;;;;;8.00;99.90;;;;;;5085460;28;19916;-68
2022/12/26 16:34:57;;;;;;;;;;;8.00;99.90;;;;;;5085048;28;19958;-68
2022/12/26 16:37:23;;;;;;;;;;;8.00;99.90;;;;;;5085396;28;19920;-68
2022/12/26 16:40:08;;;;;;;;;;;8.00;99.90;;;;;;5085140;28;19919;-68
2022/12/26 16:42:33;;;;;;;;;;;7.90;99.90;;;;;;5086737;28;20590;-68
2022/12/26 16:44:59;;;;;;;;;;;7.90;99.90;;;;;;5085800;28;19916;-69
2022/12/26 16:47:25;;;;;;;;;;;7.90;99.90;;;;;;5085096;28;20023;-69
2022/12/26 16:49:52;;;;;;;;;;;7.80;99.90;;;;;;5084489;28;19916;-69
2022/12/26 16:52:34;;;;;;;;;;;7.90;99.90;;;;;;5065724;28;20596;-68
2022/12/26 16:55:18;;;;;;;;;;;7.80;99.90;;;;;;5084869;28;19923;-68
2022/12/26 16:57:43;;;;;;;;;;;7.80;99.90;;;;;;5084872;28;19919;-68
2022/12/26 17:00:15;;;;;;;;;;;7.80;99.90;;;;;;5084912;28;19915;-68